sensor_id;sensor_type;location;lat;lon;timestamp;P1;durP1;ratioP1;P2;durP2;ratioP2
10540;SDS011;5318;50.844;4.272;2022-12-24T00:00:33;5.17;;;4.97;;
10540;SDS011;5318;50.844;4.272;2022-12-24T00:03:10;4.27;;;4.17;;
10540;SDS011;5318;50.844;4.272;2022-12-24T00:05:46;6.12;;;5.93;;
10540;SDS011;5318;50.844;4.272;2022-12-24T00:08:24;6.18;;;5.97;;
10540;SDS011;5318;50.844;4.272;2022-12-24T00:11:00;5.13;;;5.03;;
10540;SDS011;5318;50.844;4.272;2022-12-24T00:13:37;5.07;;;4.97;;
10540;SDS011;5318;50.844;4.272;2022-12-24T00:16:13;4.60;;;4.50;;
10540;SDS011;5318;50.844;4.272;2022-12-24T00:18:50;6.22;;;6.03;;
10540;SDS011;5318;50.844;4.272;2022-12-24T00:21:27;5.30;;;5.18;;
10540;SDS011;5318;50.844;4.272;2022-12-24T00:24:03;4.20;;;4.10;;
10540;SDS011;5318;50.844;4.272;2022-12-24T00:26:41;5.95;;;5.75;;
10540;SDS011;5318;50.844;4.272;2022-12-24T00:29:18;4.00;;;3.90;;
10540;SDS011;5318;50.844;4.272;2022-12-24T00:31:54;5.78;;;5.57;;
10540;SDS011;5318;50.844;4.272;2022-12-24T00:34:30;4.50;;;4.40;;
10540;SDS011;5318;50.844;4.272;2022-12-24T00:37:07;4.50;;;4.40;;
10540;SDS011;5318;50.844;4.272;2022-12-24T00:39:43;4.30;;;4.20;;
10540;SDS011;5318;50.844;4.272;2022-12-24T00:42:20;5.25;;;5.15;;
10540;SDS011;5318;50.844;4.272;2022-12-24T00:44:57;4.70;;;4.57;;
10540;SDS011;5318;50.844;4.272;2022-12-24T00:47:33;4.73;;;4.60;;
10540;SDS011;5318;50.844;4.272;2022-12-24T00:50:10;5.27;;;5.07;;
10540;SDS011;5318;50.844;4.272;2022-12-24T00:52:46;3.90;;;3.80;;
10540;SDS011;5318;50.844;4.272;2022-12-24T00:55:23;4.20;;;4.10;;
10540;SDS011;5318;50.844;4.272;2022-12-24T00:58:00;4.90;;;4.70;;
10540;SDS011;5318;50.844;4.272;2022-12-24T01:00:36;4.97;;;4.87;;
10540;SDS011;5318;50.844;4.272;2022-12-24T01:03:13;5.22;;;5.12;;
10540;SDS011;5318;50.844;4.272;2022-12-24T01:05:50;3.93;;;3.83;;
10540;SDS011;5318;50.844;4.272;2022-12-24T01:08:26;3.40;;;3.30;;
10540;SDS011;5318;50.844;4.272;2022-12-24T01:11:03;4.13;;;4.03;;
10540;SDS011;5318;50.844;4.272;2022-12-24T01:13:39;5.23;;;5.07;;
10540;SDS011;5318;50.844;4.272;2022-12-24T01:16:18;3.57;;;3.47;;
10540;SDS011;5318;50.844;4.272;2022-12-24T01:18:53;4.13;;;4.03;;
10540;SDS011;5318;50.844;4.272;2022-12-24T01:21:29;3.03;;;3.00;;
10540;SDS011;5318;50.844;4.272;2022-12-24T01:24:08;3.37;;;3.28;;
10540;SDS011;5318;50.844;4.272;2022-12-24T01:26:43;2.72;;;2.72;;
10540;SDS011;5318;50.844;4.272;2022-12-24T01:29:19;2.78;;;2.78;;
10540;SDS011;5318;50.844;4.272;2022-12-24T01:31:57;2.83;;;2.83;;
10540;SDS011;5318;50.844;4.272;2022-12-24T01:34:33;3.13;;;3.13;;
10540;SDS011;5318;50.844;4.272;2022-12-24T01:37:10;3.87;;;3.77;;
10540;SDS011;5318;50.844;4.272;2022-12-24T01:39:46;4.30;;;4.20;;
10540;SDS011;5318;50.844;4.272;2022-12-24T01:42:23;4.03;;;3.93;;
10540;SDS011;5318;50.844;4.272;2022-12-24T01:45:21;4.32;;;4.22;;
10540;SDS011;5318;50.844;4.272;2022-12-24T01:47:36;4.50;;;4.40;;
10540;SDS011;5318;50.844;4.272;2022-12-24T01:50:15;5.30;;;5.20;;
10540;SDS011;5318;50.844;4.272;2022-12-24T01:52:51;4.73;;;4.63;;
10540;SDS011;5318;50.844;4.272;2022-12-24T01:55:28;4.43;;;4.33;;
10540;SDS011;5318;50.844;4.272;2022-12-24T01:58:05;4.13;;;4.03;;
10540;SDS011;5318;50.844;4.272;2022-12-24T02:00:41;4.00;;;3.90;;
10540;SDS011;5318;50.844;4.272;2022-12-24T02:03:18;3.87;;;3.77;;
10540;SDS011;5318;50.844;4.272;2022-12-24T02:05:55;3.23;;;3.23;;
10540;SDS011;5318;50.844;4.272;2022-12-24T02:08:32;4.50;;;4.40;;
10540;SDS011;5318;50.844;4.272;2022-12-24T02:11:08;4.60;;;4.50;;
10540;SDS011;5318;50.844;4.272;2022-12-24T02:13:51;3.87;;;3.77;;
10540;SDS011;5318;50.844;4.272;2022-12-24T02:16:33;6.07;;;5.97;;
10540;SDS011;5318;50.844;4.272;2022-12-24T02:19:24;3.23;;;3.13;;
10540;SDS011;5318;50.844;4.272;2022-12-24T02:22:00;4.20;;;4.10;;
10540;SDS011;5318;50.844;4.272;2022-12-24T02:24:56;3.50;;;3.40;;
10540;SDS011;5318;50.844;4.272;2022-12-24T02:31:39;4.43;;;4.33;;
10540;SDS011;5318;50.844;4.272;2022-12-24T02:33:50;4.47;;;4.37;;
10540;SDS011;5318;50.844;4.272;2022-12-24T02:36:30;3.43;;;3.33;;
10540;SDS011;5318;50.844;4.272;2022-12-24T02:39:14;4.17;;;4.07;;
10540;SDS011;5318;50.844;4.272;2022-12-24T02:41:47;3.90;;;3.80;;
10540;SDS011;5318;50.844;4.272;2022-12-24T02:44:25;3.17;;;3.07;;
10540;SDS011;5318;50.844;4.272;2022-12-24T02:46:58;3.50;;;3.40;;
10540;SDS011;5318;50.844;4.272;2022-12-24T02:49:35;3.03;;;3.03;;
10540;SDS011;5318;50.844;4.272;2022-12-24T02:55:06;3.13;;;3.13;;
10540;SDS011;5318;50.844;4.272;2022-12-24T03:00:52;4.93;;;4.83;;
10540;SDS011;5318;50.844;4.272;2022-12-24T03:09:24;4.60;;;4.50;;
10540;SDS011;5318;50.844;4.272;2022-12-24T03:12:09;3.93;;;3.83;;
10540;SDS011;5318;50.844;4.272;2022-12-24T03:14:51;3.80;;;3.70;;
10540;SDS011;5318;50.844;4.272;2022-12-24T03:17:28;4.30;;;4.20;;
10540;SDS011;5318;50.844;4.272;2022-12-24T03:20:05;4.93;;;4.82;;
10540;SDS011;5318;50.844;4.272;2022-12-24T03:22:41;3.43;;;3.33;;
10540;SDS011;5318;50.844;4.272;2022-12-24T03:25:18;4.47;;;4.37;;
10540;SDS011;5318;50.844;4.272;2022-12-24T03:27:55;3.93;;;3.83;;
10540;SDS011;5318;50.844;4.272;2022-12-24T03:30:31;3.53;;;3.43;;
10540;SDS011;5318;50.844;4.272;2022-12-24T03:33:08;4.07;;;3.97;;
10540;SDS011;5318;50.844;4.272;2022-12-24T03:35:44;4.93;;;4.83;;
10540;SDS011;5318;50.844;4.272;2022-12-24T03:38:21;3.73;;;3.63;;
10540;SDS011;5318;50.844;4.272;2022-12-24T03:40:57;3.90;;;3.80;;
10540;SDS011;5318;50.844;4.272;2022-12-24T03:43:34;4.40;;;4.30;;
10540;SDS011;5318;50.844;4.272;2022-12-24T03:46:11;4.50;;;4.43;;
10540;SDS011;5318;50.844;4.272;2022-12-24T03:48:47;5.20;;;5.10;;
10540;SDS011;5318;50.844;4.272;2022-12-24T03:51:24;5.05;;;4.95;;
10540;SDS011;5318;50.844;4.272;2022-12-24T03:54:00;4.93;;;4.82;;
10540;SDS011;5318;50.844;4.272;2022-12-24T03:56:38;5.47;;;5.37;;
10540;SDS011;5318;50.844;4.272;2022-12-24T03:59:14;4.87;;;4.77;;
10540;SDS011;5318;50.844;4.272;2022-12-24T04:01:51;4.95;;;4.85;;
10540;SDS011;5318;50.844;4.272;2022-12-24T04:04:27;4.43;;;4.33;;
10540;SDS011;5318;50.844;4.272;2022-12-24T04:07:04;4.73;;;4.63;;
10540;SDS011;5318;50.844;4.272;2022-12-24T04:09:40;4.73;;;4.63;;
10540;SDS011;5318;50.844;4.272;2022-12-24T04:12:17;5.32;;;5.12;;
10540;SDS011;5318;50.844;4.272;2022-12-24T04:14:54;3.87;;;3.77;;
10540;SDS011;5318;50.844;4.272;2022-12-24T04:17:30;4.47;;;4.37;;
10540;SDS011;5318;50.844;4.272;2022-12-24T04:20:07;3.70;;;3.60;;
10540;SDS011;5318;50.844;4.272;2022-12-24T04:22:44;3.70;;;3.60;;
10540;SDS011;5318;50.844;4.272;2022-12-24T04:25:20;3.80;;;3.70;;
10540;SDS011;5318;50.844;4.272;2022-12-24T04:27:57;4.00;;;3.90;;
10540;SDS011;5318;50.844;4.272;2022-12-24T04:30:33;4.27;;;4.17;;
10540;SDS011;5318;50.844;4.272;2022-12-24T04:33:10;3.87;;;3.77;;
10540;SDS011;5318;50.844;4.272;2022-12-24T04:35:46;3.53;;;3.43;;
10540;SDS011;5318;50.844;4.272;2022-12-24T04:38:23;4.27;;;4.17;;
10540;SDS011;5318;50.844;4.272;2022-12-24T04:41:00;4.57;;;4.47;;
10540;SDS011;5318;50.844;4.272;2022-12-24T04:43:36;4.07;;;3.87;;
10540;SDS011;5318;50.844;4.272;2022-12-24T04:46:14;4.83;;;4.73;;
10540;SDS011;5318;50.844;4.272;2022-12-24T04:48:50;5.18;;;5.07;;
10540;SDS011;5318;50.844;4.272;2022-12-24T04:51:27;3.77;;;3.67;;
10540;SDS011;5318;50.844;4.272;2022-12-24T04:54:05;3.80;;;3.70;;
10540;SDS011;5318;50.844;4.272;2022-12-24T04:56:41;4.43;;;4.33;;
10540;SDS011;5318;50.844;4.272;2022-12-24T04:59:18;3.53;;;3.43;;
10540;SDS011;5318;50.844;4.272;2022-12-24T05:01:55;4.63;;;4.53;;
10540;SDS011;5318;50.844;4.272;2022-12-24T05:04:31;3.97;;;3.87;;
10540;SDS011;5318;50.844;4.272;2022-12-24T05:07:08;3.97;;;3.87;;
10540;SDS011;5318;50.844;4.272;2022-12-24T05:09:44;3.73;;;3.63;;
10540;SDS011;5318;50.844;4.272;2022-12-24T05:12:21;4.10;;;4.00;;
10540;SDS011;5318;50.844;4.272;2022-12-24T05:14:58;5.72;;;5.53;;
10540;SDS011;5318;50.844;4.272;2022-12-24T05:17:34;4.97;;;4.87;;
10540;SDS011;5318;50.844;4.272;2022-12-24T05:20:11;4.83;;;4.73;;
10540;SDS011;5318;50.844;4.272;2022-12-24T05:22:48;4.90;;;4.80;;
10540;SDS011;5318;50.844;4.272;2022-12-24T05:25:26;5.50;;;5.40;;
10540;SDS011;5318;50.844;4.272;2022-12-24T05:28:01;5.00;;;4.80;;
10540;SDS011;5318;50.844;4.272;2022-12-24T05:30:38;4.37;;;4.27;;
10540;SDS011;5318;50.844;4.272;2022-12-24T05:33:14;5.45;;;5.35;;
10540;SDS011;5318;50.844;4.272;2022-12-24T05:35:51;4.90;;;4.80;;
10540;SDS011;5318;50.844;4.272;2022-12-24T05:38:27;3.33;;;3.30;;
10540;SDS011;5318;50.844;4.272;2022-12-24T05:41:04;3.50;;;3.40;;
10540;SDS011;5318;50.844;4.272;2022-12-24T05:43:41;4.53;;;4.43;;
10540;SDS011;5318;50.844;4.272;2022-12-24T05:46:19;4.00;;;3.90;;
10540;SDS011;5318;50.844;4.272;2022-12-24T05:48:55;3.90;;;3.80;;
10540;SDS011;5318;50.844;4.272;2022-12-24T05:51:31;3.90;;;3.80;;
10540;SDS011;5318;50.844;4.272;2022-12-24T05:54:08;4.07;;;3.97;;
10540;SDS011;5318;50.844;4.272;2022-12-24T05:56:44;4.40;;;4.30;;
10540;SDS011;5318;50.844;4.272;2022-12-24T05:59:21;4.97;;;4.87;;
10540;SDS011;5318;50.844;4.272;2022-12-24T06:01:57;4.85;;;4.75;;
10540;SDS011;5318;50.844;4.272;2022-12-24T06:04:34;4.77;;;4.67;;
10540;SDS011;5318;50.844;4.272;2022-12-24T06:07:11;4.68;;;4.57;;
10540;SDS011;5318;50.844;4.272;2022-12-24T06:09:48;3.20;;;3.20;;
10540;SDS011;5318;50.844;4.272;2022-12-24T06:12:25;4.00;;;3.90;;
10540;SDS011;5318;50.844;4.272;2022-12-24T06:15:01;7.23;;;7.13;;
10540;SDS011;5318;50.844;4.272;2022-12-24T06:17:38;3.27;;;3.27;;
10540;SDS011;5318;50.844;4.272;2022-12-24T06:20:14;5.35;;;5.25;;
10540;SDS011;5318;50.844;4.272;2022-12-24T06:22:51;4.47;;;4.37;;
10540;SDS011;5318;50.844;4.272;2022-12-24T06:25:28;5.37;;;5.27;;
10540;SDS011;5318;50.844;4.272;2022-12-24T06:28:05;5.60;;;5.50;;
10540;SDS011;5318;50.844;4.272;2022-12-24T06:30:45;4.30;;;4.20;;
10540;SDS011;5318;50.844;4.272;2022-12-24T06:33:18;3.13;;;3.03;;
10540;SDS011;5318;50.844;4.272;2022-12-24T06:35:54;5.07;;;4.97;;
10540;SDS011;5318;50.844;4.272;2022-12-24T06:38:31;4.77;;;4.67;;
10540;SDS011;5318;50.844;4.272;2022-12-24T06:41:08;5.67;;;5.53;;
10540;SDS011;5318;50.844;4.272;2022-12-24T06:43:45;5.18;;;5.07;;
10540;SDS011;5318;50.844;4.272;2022-12-24T06:46:21;4.90;;;4.80;;
10540;SDS011;5318;50.844;4.272;2022-12-24T06:48:57;4.87;;;4.67;;
10540;SDS011;5318;50.844;4.272;2022-12-24T06:51:34;4.03;;;3.93;;
10540;SDS011;5318;50.844;4.272;2022-12-24T06:54:13;4.10;;;4.00;;
10540;SDS011;5318;50.844;4.272;2022-12-24T06:56:51;3.90;;;3.80;;
10540;SDS011;5318;50.844;4.272;2022-12-24T06:59:28;5.10;;;5.00;;
10540;SDS011;5318;50.844;4.272;2022-12-24T07:02:05;5.20;;;5.10;;
10540;SDS011;5318;50.844;4.272;2022-12-24T07:04:41;5.05;;;4.95;;
10540;SDS011;5318;50.844;4.272;2022-12-24T07:07:18;4.40;;;4.30;;
10540;SDS011;5318;50.844;4.272;2022-12-24T07:09:54;4.33;;;4.23;;
10540;SDS011;5318;50.844;4.272;2022-12-24T07:12:31;5.22;;;5.12;;
10540;SDS011;5318;50.844;4.272;2022-12-24T07:15:09;5.22;;;5.12;;
10540;SDS011;5318;50.844;4.272;2022-12-24T07:17:48;5.10;;;5.00;;
10540;SDS011;5318;50.844;4.272;2022-12-24T07:20:24;3.93;;;3.83;;
10540;SDS011;5318;50.844;4.272;2022-12-24T07:23:01;5.20;;;5.00;;
10540;SDS011;5318;50.844;4.272;2022-12-24T07:25:40;4.67;;;4.57;;
10540;SDS011;5318;50.844;4.272;2022-12-24T07:28:14;5.17;;;5.07;;
10540;SDS011;5318;50.844;4.272;2022-12-24T07:30:51;5.40;;;5.27;;
10540;SDS011;5318;50.844;4.272;2022-12-24T07:33:27;5.53;;;5.43;;
10540;SDS011;5318;50.844;4.272;2022-12-24T07:36:04;5.75;;;5.60;;
10540;SDS011;5318;50.844;4.272;2022-12-24T07:38:41;5.10;;;4.90;;
10540;SDS011;5318;50.844;4.272;2022-12-24T07:41:17;4.80;;;4.60;;
10540;SDS011;5318;50.844;4.272;2022-12-24T07:43:54;4.60;;;4.50;;
10540;SDS011;5318;50.844;4.272;2022-12-24T07:46:30;5.47;;;5.30;;
10540;SDS011;5318;50.844;4.272;2022-12-24T07:49:08;5.10;;;5.00;;
10540;SDS011;5318;50.844;4.272;2022-12-24T07:51:45;4.73;;;4.63;;
10540;SDS011;5318;50.844;4.272;2022-12-24T07:54:22;5.40;;;5.27;;
10540;SDS011;5318;50.844;4.272;2022-12-24T07:56:58;5.17;;;5.07;;
10540;SDS011;5318;50.844;4.272;2022-12-24T07:59:35;4.97;;;4.77;;
10540;SDS011;5318;50.844;4.272;2022-12-24T08:02:12;5.87;;;5.67;;
10540;SDS011;5318;50.844;4.272;2022-12-24T08:04:48;4.33;;;4.23;;
10540;SDS011;5318;50.844;4.272;2022-12-24T08:07:32;5.78;;;5.68;;
10540;SDS011;5318;50.844;4.272;2022-12-24T08:10:05;5.20;;;5.10;;
10540;SDS011;5318;50.844;4.272;2022-12-24T08:12:41;4.80;;;4.70;;
10540;SDS011;5318;50.844;4.272;2022-12-24T08:15:18;4.37;;;4.27;;
10540;SDS011;5318;50.844;4.272;2022-12-24T08:17:55;5.63;;;5.43;;
10540;SDS011;5318;50.844;4.272;2022-12-24T08:20:32;4.17;;;4.07;;
10540;SDS011;5318;50.844;4.272;2022-12-24T08:23:08;5.40;;;5.30;;
10540;SDS011;5318;50.844;4.272;2022-12-24T08:25:47;4.40;;;4.30;;
10540;SDS011;5318;50.844;4.272;2022-12-24T08:28:23;4.47;;;4.37;;
10540;SDS011;5318;50.844;4.272;2022-12-24T08:31:00;5.30;;;5.20;;
10540;SDS011;5318;50.844;4.272;2022-12-24T08:33:36;5.63;;;5.53;;
10540;SDS011;5318;50.844;4.272;2022-12-24T08:36:13;5.17;;;5.07;;
10540;SDS011;5318;50.844;4.272;2022-12-24T08:38:51;5.40;;;5.30;;
10540;SDS011;5318;50.844;4.272;2022-12-24T08:41:30;4.67;;;4.47;;
10540;SDS011;5318;50.844;4.272;2022-12-24T08:44:08;5.37;;;5.25;;
10540;SDS011;5318;50.844;4.272;2022-12-24T08:46:46;5.90;;;5.80;;
10540;SDS011;5318;50.844;4.272;2022-12-24T08:49:22;5.53;;;5.43;;
10540;SDS011;5318;50.844;4.272;2022-12-24T08:51:59;4.97;;;4.87;;
10540;SDS011;5318;50.844;4.272;2022-12-24T08:54:36;4.83;;;4.73;;
10540;SDS011;5318;50.844;4.272;2022-12-24T08:57:12;4.27;;;4.17;;
10540;SDS011;5318;50.844;4.272;2022-12-24T08:59:49;4.43;;;4.33;;
10540;SDS011;5318;50.844;4.272;2022-12-24T09:02:25;4.23;;;4.13;;
10540;SDS011;5318;50.844;4.272;2022-12-24T09:05:02;3.97;;;3.87;;
10540;SDS011;5318;50.844;4.272;2022-12-24T09:07:39;4.13;;;4.03;;
10540;SDS011;5318;50.844;4.272;2022-12-24T09:10:16;4.77;;;4.67;;
10540;SDS011;5318;50.844;4.272;2022-12-24T09:12:52;5.07;;;4.87;;
10540;SDS011;5318;50.844;4.272;2022-12-24T09:15:31;5.57;;;5.47;;
10540;SDS011;5318;50.844;4.272;2022-12-24T09:18:07;5.67;;;5.57;;
10540;SDS011;5318;50.844;4.272;2022-12-24T09:20:44;5.70;;;5.60;;
10540;SDS011;5318;50.844;4.272;2022-12-24T09:23:20;4.20;;;4.10;;
10540;SDS011;5318;50.844;4.272;2022-12-24T09:25:58;4.50;;;4.40;;
10540;SDS011;5318;50.844;4.272;2022-12-24T09:28:34;4.80;;;4.70;;
10540;SDS011;5318;50.844;4.272;2022-12-24T09:31:11;5.40;;;5.20;;
10540;SDS011;5318;50.844;4.272;2022-12-24T09:33:48;5.07;;;4.97;;
10540;SDS011;5318;50.844;4.272;2022-12-24T09:36:24;4.40;;;4.30;;
10540;SDS011;5318;50.844;4.272;2022-12-24T09:39:01;5.93;;;5.83;;
10540;SDS011;5318;50.844;4.272;2022-12-24T09:41:43;6.00;;;5.90;;
10540;SDS011;5318;50.844;4.272;2022-12-24T09:44:27;6.03;;;5.82;;
10540;SDS011;5318;50.844;4.272;2022-12-24T09:47:00;5.20;;;5.10;;
10540;SDS011;5318;50.844;4.272;2022-12-24T09:49:37;5.27;;;5.17;;
10540;SDS011;5318;50.844;4.272;2022-12-24T09:52:22;5.53;;;5.37;;
10540;SDS011;5318;50.844;4.272;2022-12-24T09:54:53;5.20;;;5.10;;
10540;SDS011;5318;50.844;4.272;2022-12-24T09:57:29;4.40;;;4.30;;
10540;SDS011;5318;50.844;4.272;2022-12-24T10:00:05;4.90;;;4.80;;
10540;SDS011;5318;50.844;4.272;2022-12-24T10:02:42;4.87;;;4.77;;
10540;SDS011;5318;50.844;4.272;2022-12-24T10:05:25;5.13;;;5.03;;
10540;SDS011;5318;50.844;4.272;2022-12-24T10:08:11;5.50;;;5.40;;
10540;SDS011;5318;50.844;4.272;2022-12-24T10:13:42;4.93;;;4.83;;
10540;SDS011;5318;50.844;4.272;2022-12-24T10:22:23;5.83;;;5.73;;
10540;SDS011;5318;50.844;4.272;2022-12-24T10:27:40;4.97;;;4.87;;
10540;SDS011;5318;50.844;4.272;2022-12-24T10:30:18;5.47;;;5.37;;
10540;SDS011;5318;50.844;4.272;2022-12-24T10:32:54;5.27;;;5.17;;
10540;SDS011;5318;50.844;4.272;2022-12-24T10:35:33;5.97;;;5.87;;
10540;SDS011;5318;50.844;4.272;2022-12-24T10:38:08;5.07;;;4.97;;
10540;SDS011;5318;50.844;4.272;2022-12-24T10:40:45;6.03;;;5.90;;
10540;SDS011;5318;50.844;4.272;2022-12-24T10:43:22;5.83;;;5.73;;
10540;SDS011;5318;50.844;4.272;2022-12-24T10:45:58;5.63;;;5.53;;
10540;SDS011;5318;50.844;4.272;2022-12-24T10:48:38;5.97;;;5.87;;
10540;SDS011;5318;50.844;4.272;2022-12-24T10:51:19;4.37;;;4.27;;
10540;SDS011;5318;50.844;4.272;2022-12-24T10:53:53;4.60;;;4.50;;
10540;SDS011;5318;50.844;4.272;2022-12-24T10:56:27;4.77;;;4.67;;
10540;SDS011;5318;50.844;4.272;2022-12-24T10:59:04;4.73;;;4.63;;
10540;SDS011;5318;50.844;4.272;2022-12-24T11:01:41;4.83;;;4.73;;
10540;SDS011;5318;50.844;4.272;2022-12-24T11:04:24;5.90;;;5.80;;
10540;SDS011;5318;50.844;4.272;2022-12-24T11:07:09;4.73;;;4.63;;
10540;SDS011;5318;50.844;4.272;2022-12-24T11:09:39;4.60;;;4.50;;
10540;SDS011;5318;50.844;4.272;2022-12-24T11:12:17;5.13;;;5.03;;
10540;SDS011;5318;50.844;4.272;2022-12-24T11:14:59;4.37;;;4.27;;
10540;SDS011;5318;50.844;4.272;2022-12-24T11:17:34;4.43;;;4.33;;
10540;SDS011;5318;50.844;4.272;2022-12-24T11:20:17;5.27;;;5.17;;
10540;SDS011;5318;50.844;4.272;2022-12-24T11:22:54;5.77;;;5.67;;
10540;SDS011;5318;50.844;4.272;2022-12-24T11:25:31;5.10;;;5.00;;
10540;SDS011;5318;50.844;4.272;2022-12-24T11:28:11;4.50;;;4.40;;
10540;SDS011;5318;50.844;4.272;2022-12-24T11:31:00;4.80;;;4.70;;
10540;SDS011;5318;50.844;4.272;2022-12-24T11:33:44;5.53;;;5.43;;
10540;SDS011;5318;50.844;4.272;2022-12-24T11:36:09;4.40;;;4.30;;
10540;SDS011;5318;50.844;4.272;2022-12-24T11:38:52;6.40;;;6.20;;
10540;SDS011;5318;50.844;4.272;2022-12-24T11:41:34;5.43;;;5.23;;
10540;SDS011;5318;50.844;4.272;2022-12-24T11:44:06;5.90;;;5.80;;
10540;SDS011;5318;50.844;4.272;2022-12-24T11:46:42;5.63;;;5.53;;
10540;SDS011;5318;50.844;4.272;2022-12-24T11:49:22;5.47;;;5.37;;
10540;SDS011;5318;50.844;4.272;2022-12-24T11:51:59;4.50;;;4.40;;
10540;SDS011;5318;50.844;4.272;2022-12-24T11:55:09;4.53;;;4.43;;
10540;SDS011;5318;50.844;4.272;2022-12-24T11:57:29;5.83;;;5.73;;
10540;SDS011;5318;50.844;4.272;2022-12-24T12:00:02;5.53;;;5.43;;
10540;SDS011;5318;50.844;4.272;2022-12-24T12:02:40;4.63;;;4.53;;
10540;SDS011;5318;50.844;4.272;2022-12-24T12:05:19;4.70;;;4.60;;
10540;SDS011;5318;50.844;4.272;2022-12-24T12:08:01;5.43;;;5.33;;
10540;SDS011;5318;50.844;4.272;2022-12-24T12:10:35;5.77;;;5.67;;
10540;SDS011;5318;50.844;4.272;2022-12-24T12:13:12;4.30;;;4.20;;
10540;SDS011;5318;50.844;4.272;2022-12-24T12:15:54;5.03;;;4.93;;
10540;SDS011;5318;50.844;4.272;2022-12-24T12:18:47;5.53;;;5.43;;
10540;SDS011;5318;50.844;4.272;2022-12-24T12:21:23;5.80;;;5.70;;
10540;SDS011;5318;50.844;4.272;2022-12-24T12:24:02;5.30;;;5.20;;
10540;SDS011;5318;50.844;4.272;2022-12-24T12:26:35;4.93;;;4.83;;
10540;SDS011;5318;50.844;4.272;2022-12-24T12:29:24;4.87;;;4.77;;
10540;SDS011;5318;50.844;4.272;2022-12-24T12:32:05;5.17;;;5.07;;
10540;SDS011;5318;50.844;4.272;2022-12-24T12:34:47;4.50;;;4.40;;
10540;SDS011;5318;50.844;4.272;2022-12-24T12:37:23;4.50;;;4.40;;
10540;SDS011;5318;50.844;4.272;2022-12-24T12:39:56;5.30;;;5.20;;
10540;SDS011;5318;50.844;4.272;2022-12-24T12:42:33;4.57;;;4.47;;
10540;SDS011;5318;50.844;4.272;2022-12-24T12:48:08;4.43;;;4.33;;
10540;SDS011;5318;50.844;4.272;2022-12-24T12:50:49;6.00;;;5.90;;
10540;SDS011;5318;50.844;4.272;2022-12-24T12:56:33;6.40;;;6.20;;
10540;SDS011;5318;50.844;4.272;2022-12-24T12:59:13;5.37;;;5.27;;
10540;SDS011;5318;50.844;4.272;2022-12-24T13:22:13;5.27;;;5.17;;
10540;SDS011;5318;50.844;4.272;2022-12-24T13:24:50;5.10;;;5.00;;
10540;SDS011;5318;50.844;4.272;2022-12-24T13:27:26;6.85;;;6.75;;
10540;SDS011;5318;50.844;4.272;2022-12-24T13:32:54;4.87;;;4.77;;
10540;SDS011;5318;50.844;4.272;2022-12-24T13:44:20;5.00;;;4.80;;
10540;SDS011;5318;50.844;4.272;2022-12-24T13:52:28;4.67;;;4.57;;
10540;SDS011;5318;50.844;4.272;2022-12-24T13:55:06;4.97;;;4.87;;
10540;SDS011;5318;50.844;4.272;2022-12-24T14:11:05;5.00;;;4.90;;
10540;SDS011;5318;50.844;4.272;2022-12-24T14:19:00;5.70;;;5.60;;
10540;SDS011;5318;50.844;4.272;2022-12-24T14:21:37;5.43;;;5.30;;
10540;SDS011;5318;50.844;4.272;2022-12-24T14:24:14;5.27;;;5.17;;
10540;SDS011;5318;50.844;4.272;2022-12-24T14:27:07;5.27;;;5.07;;
10540;SDS011;5318;50.844;4.272;2022-12-24T14:29:49;5.83;;;5.73;;
10540;SDS011;5318;50.844;4.272;2022-12-24T14:32:37;5.00;;;4.90;;
10540;SDS011;5318;50.844;4.272;2022-12-24T14:38:12;4.63;;;4.53;;
10540;SDS011;5318;50.844;4.272;2022-12-24T14:40:48;4.83;;;4.73;;
10540;SDS011;5318;50.844;4.272;2022-12-24T14:43:13;6.20;;;6.07;;
10540;SDS011;5318;50.844;4.272;2022-12-24T14:57:20;4.63;;;4.53;;
10540;SDS011;5318;50.844;4.272;2022-12-24T14:59:58;6.00;;;5.90;;
10540;SDS011;5318;50.844;4.272;2022-12-24T15:02:47;7.25;;;7.05;;
10540;SDS011;5318;50.844;4.272;2022-12-24T15:05:26;5.97;;;5.87;;
10540;SDS011;5318;50.844;4.272;2022-12-24T15:08:03;5.83;;;5.63;;
10540;SDS011;5318;50.844;4.272;2022-12-24T15:10:40;5.90;;;5.70;;
10540;SDS011;5318;50.844;4.272;2022-12-24T15:16:11;5.43;;;5.33;;
10540;SDS011;5318;50.844;4.272;2022-12-24T15:18:48;6.27;;;6.07;;
10540;SDS011;5318;50.844;4.272;2022-12-24T15:21:27;6.20;;;6.00;;
10540;SDS011;5318;50.844;4.272;2022-12-24T15:24:01;7.77;;;7.57;;
10540;SDS011;5318;50.844;4.272;2022-12-24T15:26:37;6.80;;;6.70;;
10540;SDS011;5318;50.844;4.272;2022-12-24T15:29:21;6.83;;;6.73;;
10540;SDS011;5318;50.844;4.272;2022-12-24T15:31:58;7.90;;;7.80;;
10540;SDS011;5318;50.844;4.272;2022-12-24T15:34:34;7.83;;;7.63;;
10540;SDS011;5318;50.844;4.272;2022-12-24T15:37:15;6.57;;;6.47;;
10540;SDS011;5318;50.844;4.272;2022-12-24T15:42:44;12.67;;;12.47;;
10540;SDS011;5318;50.844;4.272;2022-12-24T15:45:22;8.07;;;7.87;;
10540;SDS011;5318;50.844;4.272;2022-12-24T15:47:59;10.43;;;10.23;;
10540;SDS011;5318;50.844;4.272;2022-12-24T15:50:42;7.10;;;7.00;;
10540;SDS011;5318;50.844;4.272;2022-12-24T15:53:15;10.80;;;10.60;;
10540;SDS011;5318;50.844;4.272;2022-12-24T15:58:50;9.43;;;9.23;;
10540;SDS011;5318;50.844;4.272;2022-12-24T16:01:26;8.60;;;8.40;;
10540;SDS011;5318;50.844;4.272;2022-12-24T16:04:09;9.43;;;9.23;;
10540;SDS011;5318;50.844;4.272;2022-12-24T16:06:55;7.50;;;7.30;;
10540;SDS011;5318;50.844;4.272;2022-12-24T16:12:16;7.53;;;7.33;;
10540;SDS011;5318;50.844;4.272;2022-12-24T16:14:48;6.30;;;6.20;;
10540;SDS011;5318;50.844;4.272;2022-12-24T16:17:27;6.90;;;6.73;;
10540;SDS011;5318;50.844;4.272;2022-12-24T16:20:02;7.30;;;7.20;;
10540;SDS011;5318;50.844;4.272;2022-12-24T16:22:37;17.17;;;16.92;;
10540;SDS011;5318;50.844;4.272;2022-12-24T16:25:23;17.48;;;17.23;;
10540;SDS011;5318;50.844;4.272;2022-12-24T16:28:03;9.53;;;9.33;;
10540;SDS011;5318;50.844;4.272;2022-12-24T16:30:38;8.80;;;8.60;;
10540;SDS011;5318;50.844;4.272;2022-12-24T16:33:15;9.97;;;9.77;;
10540;SDS011;5318;50.844;4.272;2022-12-24T16:35:52;22.40;;;22.20;;
10540;SDS011;5318;50.844;4.272;2022-12-24T16:38:29;12.60;;;12.40;;
10540;SDS011;5318;50.844;4.272;2022-12-24T16:41:05;16.30;;;16.10;;
10540;SDS011;5318;50.844;4.272;2022-12-24T16:43:42;25.33;;;25.03;;
10540;SDS011;5318;50.844;4.272;2022-12-24T16:46:18;23.80;;;23.50;;
10540;SDS011;5318;50.844;4.272;2022-12-24T16:48:55;13.85;;;13.65;;
10540;SDS011;5318;50.844;4.272;2022-12-24T16:51:32;21.58;;;21.27;;
10540;SDS011;5318;50.844;4.272;2022-12-24T16:54:12;17.10;;;16.80;;
10540;SDS011;5318;50.844;4.272;2022-12-24T16:56:48;15.33;;;15.13;;
10540;SDS011;5318;50.844;4.272;2022-12-24T16:59:26;12.00;;;11.80;;
10540;SDS011;5318;50.844;4.272;2022-12-24T17:02:03;9.57;;;9.47;;
10540;SDS011;5318;50.844;4.272;2022-12-24T17:04:39;12.60;;;12.40;;
10540;SDS011;5318;50.844;4.272;2022-12-24T17:07:17;17.40;;;17.20;;
10540;SDS011;5318;50.844;4.272;2022-12-24T17:09:52;10.80;;;10.60;;
10540;SDS011;5318;50.844;4.272;2022-12-24T17:12:30;20.47;;;20.27;;
10540;SDS011;5318;50.844;4.272;2022-12-24T17:15:07;9.43;;;9.23;;
10540;SDS011;5318;50.844;4.272;2022-12-24T17:17:44;8.93;;;8.80;;
10540;SDS011;5318;50.844;4.272;2022-12-24T17:20:21;8.43;;;8.33;;
10540;SDS011;5318;50.844;4.272;2022-12-24T17:22:58;16.77;;;16.57;;
10540;SDS011;5318;50.844;4.272;2022-12-24T17:25:35;14.53;;;14.33;;
10540;SDS011;5318;50.844;4.272;2022-12-24T17:28:11;17.10;;;16.90;;
10540;SDS011;5318;50.844;4.272;2022-12-24T17:30:49;15.13;;;14.93;;
10540;SDS011;5318;50.844;4.272;2022-12-24T17:33:25;17.23;;;17.03;;
10540;SDS011;5318;50.844;4.272;2022-12-24T17:36:02;12.77;;;12.57;;
10540;SDS011;5318;50.844;4.272;2022-12-24T17:38:38;19.73;;;19.53;;
10540;SDS011;5318;50.844;4.272;2022-12-24T17:41:16;16.27;;;16.08;;
10540;SDS011;5318;50.844;4.272;2022-12-24T17:43:52;13.13;;;12.93;;
10540;SDS011;5318;50.844;4.272;2022-12-24T17:46:29;15.27;;;15.07;;
10540;SDS011;5318;50.844;4.272;2022-12-24T17:49:05;16.52;;;16.30;;
10540;SDS011;5318;50.844;4.272;2022-12-24T17:51:42;13.07;;;12.87;;
10540;SDS011;5318;50.844;4.272;2022-12-24T17:54:26;11.18;;;10.98;;